Flight Track Log - Related Links

Times and Time Zones

All times are in EDT time to prevent confusion due to time zone crossing. See the EGF4090 flight status page for this flight to view local times or setup timezone preferences in your user account.

Time Position Orientation Groundspeed Altitude Reporting Facility
EDT Latitude Longitude Course Direction KTS MPH feet Rate Location/Type
Tue 11:40:21 PM 41.9667 -87.8833 194° South 161 185 1,700  Level Chicago TRACON
Tue 11:41:15 PM 41.9333 -87.8833 180° South 183 211 3,600 1,951 Climbing Chicago TRACON
Tue 11:42:00 PM 41.7066 -88.0894 192° South  Level Estimated
Tue 11:43:00 PM 41.6148 -88.1500 189° South  Level Estimated
Tue 11:43:04 PM 41.8206 -87.8872 181° South 240 276 7,000  Level Chicago Center
Tue 11:44:00 PM 41.5235 -88.0884 153° Southeast  Level FlightAware Approximate
Tue 11:44:05 PM 41.7547 -87.9139 197° South 248 285 9,300  Level Chicago Center
Tue 11:45:00 PM 41.4323 -88.1501 194° South  Level Estimated
Tue 11:45:06 PM 41.6819 -87.9381 194° South 268 308 11,200  Level Chicago Center
Tue 11:46:07 PM 41.5897 -87.9906 203° Southwest 307 353 12,700 1,230 Climbing Chicago Center
Tue 11:47:08 PM 41.5086 -88.0483 208° Southwest 330 380 13,700 1,091 Climbing Chicago Center
Tue 11:48:08 PM 41.4253 -88.1086 208° Southwest 354 407 14,900 1,289 Climbing Chicago Center
Tue 11:49:09 PM 41.3383 -88.1647 206° Southwest 360 414 16,300 1,511 Climbing Chicago Center
Tue 11:51:00 PM 41.1743 -88.2688 209° Southwest  Level FlightAware Approximate
Tue 11:55:13 PM 40.7786 -88.5431 205° Southwest 372 428 25,600  Level Chicago Center
Tue 11:56:14 PM 40.6869 -88.6042 207° Southwest 372 428 27,100 1,475 Climbing Chicago Center
Tue 11:57:15 PM 40.5969 -88.6644 207° Southwest 366 421 28,600 1,488 Climbing Chicago Center
Tue 11:58:00 PM 40.5586 -88.6897 205° Southwest  Level FlightAware Approximate
Tue 11:58:15 PM 40.5067 -88.7236 206° Southwest 364 419 30,100  Level Chicago Center
Tue 11:59:00 PM 40.4688 -88.7449 205° Southwest  Level FlightAware Approximate
Tue 11:59:16 PM 40.4239 -88.7781 207° Southwest 359 413 31,600  Level Chicago Center
Wed 12:00:00 AM 40.3788 -88.7994 205° Southwest  Level FlightAware Approximate
Wed 12:00:16 AM 40.3342 -88.8367 206° Southwest 358 412 33,000  Level Chicago Center
Wed 12:01:17 AM 40.2436 -88.8964 207° Southwest 364 419 33,900 492 Climbing Chicago Center
Wed 12:02:18 AM 40.1489 -88.9594 207° Southwest 380 437 34,000 50 Climbing Chicago Center
Wed 12:03:18 AM 40.0442 -89.0261 206° Southwest 413 475 34,000  Level Chicago Center
Wed 12:04:19 AM 39.9356 -89.0978 207° Southwest 433 498 34,000  Level Chicago Center
Wed 12:05:19 AM 39.8231 -89.1703 206° Southwest 445 512 34,000  Level Chicago Center
Wed 12:06:20 AM 39.7119 -89.2433 207° Southwest 445 512 34,000  Level Chicago Center
Wed 12:07:20 AM 39.6019 -89.3128 206° Southwest 441 507 34,000  Level Chicago Center
Wed 12:08:21 AM 39.4903 -89.3836 206° Southwest 442 509 34,000  Level Chicago Center
Wed 12:09:21 AM 39.3775 -89.4550 206° Southwest 448 516 34,000  Level Chicago Center
Wed 12:10:26 AM 39.2378 -89.5439 206° Southwest 447 514 34,000  Level Kansas City Center
Wed 12:11:27 AM 39.1267 -89.6181 207° Southwest 445 512 34,000  Level Kansas City Center
Wed 12:12:28 AM 39.0150 -89.6883 206° Southwest 446 513 34,000  Level Kansas City Center
Wed 12:13:29 AM 38.9047 -89.7569 206° Southwest 445 512 34,000  Level Kansas City Center
Wed 12:14:30 AM 38.7925 -89.8267 206° Southwest 447 514 34,000  Level Kansas City Center
Wed 12:15:30 AM 38.6806 -89.8964 206° Southwest 444 511 34,000  Level Kansas City Center
Wed 12:16:31 AM 38.5686 -89.9647 206° Southwest 443 510 34,000  Level Kansas City Center
Wed 12:17:32 AM 38.4567 -90.0347 206° Southwest 444 511 34,000  Level Kansas City Center
Wed 12:18:33 AM 38.3353 -90.1111 206° Southwest 444 511 34,000  Level Kansas City Center
Wed 12:19:34 AM 38.2250 -90.1789 206° Southwest 443 510 34,000  Level Kansas City Center
Wed 12:20:34 AM 38.1142 -90.2464 206° Southwest 442 509 34,000  Level Kansas City Center
Wed 12:21:35 AM 37.9947 -90.3186 205° Southwest 443 510 34,000  Level Kansas City Center
Wed 12:22:36 AM 37.8847 -90.3867 206° Southwest 441 507 34,000  Level Kansas City Center
Wed 12:23:37 AM 37.7878 -90.4450 205° Southwest 444 511 34,000  Level Kansas City Center
Wed 12:24:37 AM 37.6778 -90.5136 206° Southwest 443 510 34,000  Level Kansas City Center
Wed 12:25:38 AM 37.5667 -90.5833 206° Southwest 444 511 34,000  Level Kansas City Center
Wed 12:27:00 AM 37.4395 -90.6563 205° Southwest  Level FlightAware Approximate
Wed 12:29:41 AM 37.1272 -90.8450 205° Southwest 422 486 34,000  Level Kansas City Center
Wed 12:30:33 AM 37.0225 -90.9103 206° Southwest 422 486 34,000  Level Memphis Center
Wed 12:31:33 AM 36.9181 -90.9719 205° Southwest 428 493 34,000  Level Memphis Center
Wed 12:32:33 AM 36.8133 -91.0333 205° Southwest 423 487 34,000  Level Memphis Center
Wed 12:33:33 AM 36.7047 -91.0944 204° Southwest 423 487 34,000  Level Memphis Center
Wed 12:34:00 AM 36.7898 -91.0325 205° Southwest  Level FlightAware Approximate
Wed 12:34:33 AM 36.6128 -91.1531 207° Southwest 423 487 34,000  Level Memphis Center
Wed 12:35:00 AM 36.6973 -91.0870 205° Southwest  Level FlightAware Approximate
Wed 12:35:33 AM 36.5039 -91.2167 205° Southwest 428 493 34,000  Level Memphis Center
Wed 12:36:33 AM 36.3867 -91.2825 204° Southwest 428 493 34,000  Level Memphis Center
Wed 12:37:33 AM 36.2797 -91.3456 205° Southwest 428 493 34,000  Level Memphis Center
Wed 12:38:33 AM 36.1708 -91.4086 205° Southwest 428 493 34,000  Level Memphis Center
Wed 12:39:33 AM 36.0600 -91.4661 203° Southwest 428 493 34,000 -1,250 Level Memphis Center
Wed 12:40:33 AM 35.9592 -91.5289 207° Southwest 422 486 31,500 -2,800 Descending Memphis Center
Wed 12:41:33 AM 35.8650 -91.5839 205° Southwest 415 478 28,400 1,250 Descending Memphis Center
Wed 12:42:33 AM 35.7600 -91.6439 205° Southwest 415 478 34,000 -3,450 Climbing Memphis Center
Wed 12:43:33 AM 35.6572 -91.7036 205° Southwest 415 478 21,500 -8,000 Descending Memphis Center
Wed 12:44:33 AM 35.5564 -91.7581 204° Southwest 410 472 18,000 -3,610 Descending Memphis Center
Wed 12:45:31 AM 35.4536 -91.8175 205° Southwest 391 450 14,400 -3,451 Descending Memphis Center
Wed 12:46:26 AM 35.3611 -91.8694 205° Southwest 377 434 11,500 -2,296 Descending Memphis Center
Wed 12:47:26 AM 35.2731 -91.9111 201° Southwest 346 398 10,000 -744 Descending Memphis Center
Wed 12:48:27 AM 35.1808 -91.9550 201° Southwest 334 384 10,000 -446 Level Memphis Center
Wed 12:49:27 AM 35.1094 -91.9892 201° Southwest 273 314 9,100 -1,140 Descending Memphis Center
Wed 12:50:28 AM 35.0358 -92.0208 199° South 259 298 7,700 -1,475 Descending Memphis Center
Wed 12:51:29 AM 34.9625 -92.0522 199° South 262 302 6,100 -1,537 Descending Memphis Center
Wed 12:52:29 AM 34.9017 -92.0814 201° Southwest 253 291 4,600 -1,240 Descending Memphis Center
Wed 12:53:30 AM 34.8386 -92.1081 199° South 224 258 3,600 -1,140 Descending Memphis Center
Wed 12:54:30 AM 34.7883 -92.1347 204° Southwest 194 223 2,300 -885 Descending Memphis Center
Wed 12:56:33 AM 34.7225 -92.2042 221° Southwest 164 189 900 -683 Descending Memphis Center

Login

Don't have an account? Register now (free) for customized features, flight alerts, and more!